sensor_id;sensor_type;location;lat;lon;timestamp;temperature;humidity
81140;SHT31;70624;51.978;5.656;2023-07-31T00:00:16;17.3;81.5
81140;SHT31;70624;51.978;5.656;2023-07-31T00:02:44;17.4;81.7
81140;SHT31;70624;51.978;5.656;2023-07-31T00:05:12;17.4;81.9
81140;SHT31;70624;51.978;5.656;2023-07-31T00:07:41;17.4;81.7
81140;SHT31;70624;51.978;5.656;2023-07-31T00:10:10;17.5;81.7
81140;SHT31;70624;51.978;5.656;2023-07-31T00:12:40;17.5;81.7
81140;SHT31;70624;51.978;5.656;2023-07-31T00:15:11;17.6;81.1
81140;SHT31;70624;51.978;5.656;2023-07-31T00:17:43;17.6;80.9
81140;SHT31;70624;51.978;5.656;2023-07-31T00:20:11;17.6;81.2
81140;SHT31;70624;51.978;5.656;2023-07-31T00:22:40;17.7;81.3
81140;SHT31;70624;51.978;5.656;2023-07-31T00:25:08;17.7;81.2
81140;SHT31;70624;51.978;5.656;2023-07-31T00:27:39;17.8;81.2
81140;SHT31;70624;51.978;5.656;2023-07-31T00:30:11;17.8;81.0
81140;SHT31;70624;51.978;5.656;2023-07-31T00:32:39;17.8;81.4
81140;SHT31;70624;51.978;5.656;2023-07-31T00:35:08;17.8;81.7
81140;SHT31;70624;51.978;5.656;2023-07-31T00:37:36;17.9;81.5
81140;SHT31;70624;51.978;5.656;2023-07-31T00:40:05;17.9;81.6
81140;SHT31;70624;51.978;5.656;2023-07-31T00:42:34;17.9;82.0
81140;SHT31;70624;51.978;5.656;2023-07-31T00:45:03;17.9;82.3
81140;SHT31;70624;51.978;5.656;2023-07-31T00:47:31;17.9;82.7
81140;SHT31;70624;51.978;5.656;2023-07-31T00:50:00;18.0;82.8
81140;SHT31;70624;51.978;5.656;2023-07-31T00:52:30;18.0;82.9
81140;SHT31;70624;51.978;5.656;2023-07-31T00:55:00;18.0;83.0
81140;SHT31;70624;51.978;5.656;2023-07-31T00:57:29;18.1;83.0
81140;SHT31;70624;51.978;5.656;2023-07-31T00:59:58;18.1;82.9
81140;SHT31;70624;51.978;5.656;2023-07-31T01:02:26;18.2;82.7
81140;SHT31;70624;51.978;5.656;2023-07-31T01:04:55;18.2;82.5
81140;SHT31;70624;51.978;5.656;2023-07-31T01:07:35;18.2;82.4
81140;SHT31;70624;51.978;5.656;2023-07-31T01:10:07;18.3;82.6
81140;SHT31;70624;51.978;5.656;2023-07-31T01:12:38;18.3;82.4
81140;SHT31;70624;51.978;5.656;2023-07-31T01:15:09;18.3;82.2
81140;SHT31;70624;51.978;5.656;2023-07-31T01:17:41;18.3;82.2
81140;SHT31;70624;51.978;5.656;2023-07-31T01:20:12;18.4;81.8
81140;SHT31;70624;51.978;5.656;2023-07-31T01:23:08;18.4;81.7
81140;SHT31;70624;51.978;5.656;2023-07-31T01:25:47;18.4;81.7
81140;SHT31;70624;51.978;5.656;2023-07-31T01:28:20;18.5;81.1
81140;SHT31;70624;51.978;5.656;2023-07-31T01:30:54;18.5;81.0
81140;SHT31;70624;51.978;5.656;2023-07-31T01:33:23;18.5;80.9
81140;SHT31;70624;51.978;5.656;2023-07-31T01:35:52;18.5;81.0
81140;SHT31;70624;51.978;5.656;2023-07-31T01:38:22;18.6;80.6
81140;SHT31;70624;51.978;5.656;2023-07-31T01:40:53;18.6;80.6
81140;SHT31;70624;51.978;5.656;2023-07-31T01:43:21;18.6;80.7
81140;SHT31;70624;51.978;5.656;2023-07-31T01:45:50;18.6;80.5
81140;SHT31;70624;51.978;5.656;2023-07-31T01:48:19;18.6;80.2
81140;SHT31;70624;51.978;5.656;2023-07-31T01:50:47;18.7;80.0
81140;SHT31;70624;51.978;5.656;2023-07-31T01:53:16;18.7;79.8
81140;SHT31;70624;51.978;5.656;2023-07-31T01:55:44;18.7;79.9
81140;SHT31;70624;51.978;5.656;2023-07-31T01:58:12;18.7;79.6
81140;SHT31;70624;51.978;5.656;2023-07-31T02:00:41;18.7;79.6
81140;SHT31;70624;51.978;5.656;2023-07-31T02:03:09;18.7;79.9
81140;SHT31;70624;51.978;5.656;2023-07-31T02:05:47;18.7;79.9
81140;SHT31;70624;51.978;5.656;2023-07-31T02:08:17;18.6;80.3
81140;SHT31;70624;51.978;5.656;2023-07-31T02:10:45;18.5;80.5
81140;SHT31;70624;51.978;5.656;2023-07-31T02:13:16;18.4;81.1
81140;SHT31;70624;51.978;5.656;2023-07-31T02:15:45;18.3;81.5
81140;SHT31;70624;51.978;5.656;2023-07-31T02:18:14;18.3;81.9
81140;SHT31;70624;51.978;5.656;2023-07-31T02:20:42;18.2;82.2
81140;SHT31;70624;51.978;5.656;2023-07-31T02:23:12;18.1;82.4
81140;SHT31;70624;51.978;5.656;2023-07-31T02:25:40;18.1;82.8
81140;SHT31;70624;51.978;5.656;2023-07-31T02:28:09;18.0;83.0
81140;SHT31;70624;51.978;5.656;2023-07-31T02:30:38;18.0;83.3
81140;SHT31;70624;51.978;5.656;2023-07-31T02:33:06;17.9;83.3
81140;SHT31;70624;51.978;5.656;2023-07-31T02:35:37;17.9;83.8
81140;SHT31;70624;51.978;5.656;2023-07-31T02:38:05;17.9;83.8
81140;SHT31;70624;51.978;5.656;2023-07-31T02:40:33;17.9;84.3
81140;SHT31;70624;51.978;5.656;2023-07-31T02:43:02;17.9;83.9
81140;SHT31;70624;51.978;5.656;2023-07-31T02:45:30;17.9;84.1
81140;SHT31;70624;51.978;5.656;2023-07-31T02:47:59;17.9;83.8
81140;SHT31;70624;51.978;5.656;2023-07-31T02:50:27;17.9;84.0
81140;SHT31;70624;51.978;5.656;2023-07-31T02:52:56;17.9;83.8
81140;SHT31;70624;51.978;5.656;2023-07-31T02:55:24;17.9;83.8
81140;SHT31;70624;51.978;5.656;2023-07-31T02:57:52;17.9;83.5
81140;SHT31;70624;51.978;5.656;2023-07-31T03:00:21;17.9;82.9
81140;SHT31;70624;51.978;5.656;2023-07-31T03:02:50;18.0;82.9
81140;SHT31;70624;51.978;5.656;2023-07-31T03:05:18;18.0;82.8
81140;SHT31;70624;51.978;5.656;2023-07-31T03:07:46;18.0;82.8
81140;SHT31;70624;51.978;5.656;2023-07-31T03:10:15;18.0;82.6
81140;SHT31;70624;51.978;5.656;2023-07-31T03:12:48;18.0;82.1
81140;SHT31;70624;51.978;5.656;2023-07-31T03:15:17;18.1;82.1
81140;SHT31;70624;51.978;5.656;2023-07-31T03:17:45;18.1;82.0
81140;SHT31;70624;51.978;5.656;2023-07-31T03:20:14;18.1;81.7
81140;SHT31;70624;51.978;5.656;2023-07-31T03:22:42;18.1;81.7
81140;SHT31;70624;51.978;5.656;2023-07-31T03:25:11;18.1;81.4
81140;SHT31;70624;51.978;5.656;2023-07-31T03:27:40;18.1;80.3
81140;SHT31;70624;51.978;5.656;2023-07-31T03:30:09;18.1;80.9
81140;SHT31;70624;51.978;5.656;2023-07-31T03:32:38;18.1;80.8
81140;SHT31;70624;51.978;5.656;2023-07-31T03:35:07;18.1;80.6
81140;SHT31;70624;51.978;5.656;2023-07-31T03:37:35;18.1;80.4
81140;SHT31;70624;51.978;5.656;2023-07-31T03:40:04;18.1;80.5
81140;SHT31;70624;51.978;5.656;2023-07-31T03:42:33;18.1;80.2
81140;SHT31;70624;51.978;5.656;2023-07-31T03:45:01;18.2;80.0
81140;SHT31;70624;51.978;5.656;2023-07-31T03:47:30;18.2;80.1
81140;SHT31;70624;51.978;5.656;2023-07-31T03:49:58;18.2;79.9
81140;SHT31;70624;51.978;5.656;2023-07-31T03:52:27;18.2;79.9
81140;SHT31;70624;51.978;5.656;2023-07-31T03:54:55;18.2;79.9
81140;SHT31;70624;51.978;5.656;2023-07-31T03:57:24;18.2;79.6
81140;SHT31;70624;51.978;5.656;2023-07-31T03:59:52;18.2;79.6
81140;SHT31;70624;51.978;5.656;2023-07-31T04:02:21;18.2;79.6
81140;SHT31;70624;51.978;5.656;2023-07-31T04:04:49;18.2;79.3
81140;SHT31;70624;51.978;5.656;2023-07-31T04:07:17;18.2;78.7
81140;SHT31;70624;51.978;5.656;2023-07-31T04:09:46;18.2;79.0
81140;SHT31;70624;51.978;5.656;2023-07-31T04:12:14;18.2;78.8
81140;SHT31;70624;51.978;5.656;2023-07-31T04:14:44;18.2;78.8
81140;SHT31;70624;51.978;5.656;2023-07-31T04:17:13;18.2;78.5
81140;SHT31;70624;51.978;5.656;2023-07-31T04:19:41;18.2;78.6
81140;SHT31;70624;51.978;5.656;2023-07-31T04:22:11;18.2;78.4
81140;SHT31;70624;51.978;5.656;2023-07-31T04:24:40;18.2;78.4
81140;SHT31;70624;51.978;5.656;2023-07-31T04:27:08;18.2;78.2
81140;SHT31;70624;51.978;5.656;2023-07-31T04:29:36;18.2;77.9
81140;SHT31;70624;51.978;5.656;2023-07-31T04:32:06;18.2;78.7
81140;SHT31;70624;51.978;5.656;2023-07-31T04:34:35;18.3;78.9
81140;SHT31;70624;51.978;5.656;2023-07-31T04:37:04;18.3;78.7
81140;SHT31;70624;51.978;5.656;2023-07-31T04:39:32;18.3;78.6
81140;SHT31;70624;51.978;5.656;2023-07-31T04:42:00;18.3;78.1
81140;SHT31;70624;51.978;5.656;2023-07-31T04:44:29;18.3;78.2
81140;SHT31;70624;51.978;5.656;2023-07-31T04:46:57;18.4;77.9
81140;SHT31;70624;51.978;5.656;2023-07-31T04:49:26;18.4;78.1
81140;SHT31;70624;51.978;5.656;2023-07-31T04:51:54;18.4;78.1
81140;SHT31;70624;51.978;5.656;2023-07-31T04:54:22;18.4;78.1
81140;SHT31;70624;51.978;5.656;2023-07-31T04:56:53;18.4;77.9
81140;SHT31;70624;51.978;5.656;2023-07-31T04:59:21;18.5;77.8
81140;SHT31;70624;51.978;5.656;2023-07-31T05:01:50;18.5;77.1
81140;SHT31;70624;51.978;5.656;2023-07-31T05:04:18;18.5;77.3
81140;SHT31;70624;51.978;5.656;2023-07-31T05:06:48;18.5;77.4
81140;SHT31;70624;51.978;5.656;2023-07-31T05:09:17;18.5;77.5
81140;SHT31;70624;51.978;5.656;2023-07-31T05:11:46;18.5;77.3
81140;SHT31;70624;51.978;5.656;2023-07-31T05:14:16;18.5;77.0
81140;SHT31;70624;51.978;5.656;2023-07-31T05:16:46;18.5;77.4
81140;SHT31;70624;51.978;5.656;2023-07-31T05:19:15;18.5;77.2
81140;SHT31;70624;51.978;5.656;2023-07-31T05:21:43;18.5;77.6
81140;SHT31;70624;51.978;5.656;2023-07-31T05:24:12;18.5;77.6
81140;SHT31;70624;51.978;5.656;2023-07-31T05:26:40;18.5;77.7
81140;SHT31;70624;51.978;5.656;2023-07-31T05:29:10;18.4;78.1
81140;SHT31;70624;51.978;5.656;2023-07-31T05:31:39;18.4;78.1
81140;SHT31;70624;51.978;5.656;2023-07-31T05:34:07;18.4;78.6
81140;SHT31;70624;51.978;5.656;2023-07-31T05:36:35;18.4;78.6
81140;SHT31;70624;51.978;5.656;2023-07-31T05:39:04;18.4;78.8
81140;SHT31;70624;51.978;5.656;2023-07-31T05:41:35;18.3;79.2
81140;SHT31;70624;51.978;5.656;2023-07-31T05:44:04;18.2;79.4
81140;SHT31;70624;51.978;5.656;2023-07-31T05:46:33;18.2;79.9
81140;SHT31;70624;51.978;5.656;2023-07-31T05:49:01;18.1;80.1
81140;SHT31;70624;51.978;5.656;2023-07-31T05:51:30;18.0;80.6
81140;SHT31;70624;51.978;5.656;2023-07-31T05:53:58;17.9;81.3
81140;SHT31;70624;51.978;5.656;2023-07-31T05:56:27;17.9;81.5
81140;SHT31;70624;51.978;5.656;2023-07-31T05:58:55;17.8;81.9
81140;SHT31;70624;51.978;5.656;2023-07-31T06:01:24;17.8;82.5
81140;SHT31;70624;51.978;5.656;2023-07-31T06:03:52;17.8;82.7
81140;SHT31;70624;51.978;5.656;2023-07-31T06:06:20;17.7;83.5
81140;SHT31;70624;51.978;5.656;2023-07-31T06:08:49;17.7;83.6
81140;SHT31;70624;51.978;5.656;2023-07-31T06:11:19;17.7;83.8
81140;SHT31;70624;51.978;5.656;2023-07-31T06:13:48;17.8;83.6
81140;SHT31;70624;51.978;5.656;2023-07-31T06:16:16;17.8;83.5
81140;SHT31;70624;51.978;5.656;2023-07-31T06:18:45;17.8;83.4
81140;SHT31;70624;51.978;5.656;2023-07-31T06:21:14;17.8;83.3
81140;SHT31;70624;51.978;5.656;2023-07-31T06:23:42;17.8;83.7
81140;SHT31;70624;51.978;5.656;2023-07-31T06:26:11;17.8;83.8
81140;SHT31;70624;51.978;5.656;2023-07-31T06:28:41;17.8;84.3
81140;SHT31;70624;51.978;5.656;2023-07-31T06:31:10;17.8;84.3
81140;SHT31;70624;51.978;5.656;2023-07-31T06:33:38;17.8;83.9
81140;SHT31;70624;51.978;5.656;2023-07-31T06:36:07;17.9;84.2
81140;SHT31;70624;51.978;5.656;2023-07-31T06:38:35;17.9;84.0
81140;SHT31;70624;51.978;5.656;2023-07-31T06:41:04;17.9;83.9
81140;SHT31;70624;51.978;5.656;2023-07-31T06:43:32;17.9;83.8
81140;SHT31;70624;51.978;5.656;2023-07-31T06:46:04;18.0;84.1
81140;SHT31;70624;51.978;5.656;2023-07-31T06:48:33;18.0;83.9
